Time;durP1;ratioP1;P1;durP2;ratioP2;P2;SDS_P1;SDS_P2;PMS_P1;PMS_P2;Temp;Humidity;BMP_temperature;BMP_pressure;BME280_temperature;BME280_humidity;BME280_pressure;Samples;Min_cycle;Max_cycle;Signal;HPM_P1;HPM_P2
2022/01/24 00:00:35;;;;;;;2.73;1.90;;;;;;;2.68;100.00;102572.06;5039020;28;20707;-75
2022/01/24 00:03:01;;;;;;;2.80;1.97;;;;;;;2.66;100.00;102572.00;5042508;28;20210;-75
2022/01/24 00:05:28;;;;;;;2.93;1.97;;;;;;;2.65;100.00;102570.25;5040129;28;20261;-75
2022/01/24 00:07:54;;;;;;;3.87;1.90;;;;;;;2.64;100.00;102574.53;5037879;28;20623;-75
2022/01/24 00:10:24;;;;;;;3.60;2.13;;;;;;;2.64;100.00;102578.81;5034656;28;20830;-75
2022/01/24 00:13:06;;;;;;;4.80;2.10;;;;;;;2.62;100.00;102575.25;5038855;28;20239;-75
2022/01/24 00:15:53;;;;;;;3.43;1.97;;;;;;;2.60;100.00;102575.25;5037920;28;20203;-75
2022/01/24 00:18:30;;;;;;;2.83;2.00;;;;;;;2.59;100.00;102578.63;5038012;28;20210;-75
2022/01/24 00:26:45;;;;;;;4.63;2.50;;;;;;;2.61;100.00;102583.84;5038946;28;20207;-75
2022/01/24 00:29:14;;;;;;;3.43;2.00;;;;;;;2.61;100.00;102581.25;5034204;28;20286;-75
2022/01/24 00:31:40;;;;;;;3.20;2.10;;;;;;;2.60;100.00;102580.38;5037629;28;20513;-75
2022/01/24 00:34:06;;;;;;;3.60;2.00;;;;;;;2.60;100.00;102566.59;5036909;28;20199;-75
2022/01/24 00:36:33;;;;;;;4.00;2.03;;;;;;;2.60;100.00;102564.03;5040715;28;20496;-75
2022/01/24 00:38:59;;;;;;;3.33;1.80;;;;;;;2.59;100.00;102563.16;5038675;28;20191;-75
2022/01/24 00:41:25;;;;;;;3.07;2.17;;;;;;;2.60;100.00;102561.47;5039130;28;20229;-75
2022/01/24 00:44:11;;;;;;;3.37;2.17;;;;;;;2.60;100.00;102566.59;5035790;28;20200;-75
2022/01/24 00:46:44;;;;;;;3.37;2.10;;;;;;;2.60;100.00;102566.59;5035201;28;20200;-75
2022/01/24 00:49:23;;;;;;;3.77;2.30;;;;;;;2.59;100.00;102577.75;5031980;28;20203;-75
2022/01/24 00:54:43;;;;;;;2.37;1.97;;;;;;;2.59;100.00;102570.91;5039618;28;20203;-75
2022/01/24 00:57:10;;;;;;;3.33;2.10;;;;;;;2.60;100.00;102579.47;5038598;28;20216;-75
2022/01/24 00:59:36;;;;;;;3.47;2.20;;;;;;;2.62;100.00;102576.16;5037996;28;20676;-75
2022/01/24 01:02:05;;;;;;;4.17;1.90;;;;;;;2.60;100.00;102575.25;5036329;28;20219;-75
2022/01/24 01:04:40;;;;;;;3.07;2.10;;;;;;;2.60;100.00;102579.47;5039105;28;20207;-75
2022/01/24 01:07:07;;;;;;;3.47;2.30;;;;;;;2.57;100.00;102580.25;5038848;28;20234;-75
2022/01/24 01:20:47;;;;;;;4.27;2.60;;;;;;;2.49;100.00;102584.22;5040504;28;20322;-75
2022/01/24 01:23:14;;;;;;;3.80;2.63;;;;;;;2.49;100.00;102585.94;5039394;28;20202;-75
2022/01/24 01:25:42;;;;;;;4.40;2.67;;;;;;;2.49;100.00;102578.22;5039702;28;20200;-75
2022/01/24 01:28:08;;;;;;;4.27;2.90;;;;;;;2.50;100.00;102574.81;5040765;28;20323;-75
2022/01/24 01:30:40;;;;;;;3.13;2.43;;;;;;;2.49;100.00;102578.22;5038804;28;20625;-75
2022/01/24 01:33:15;;;;;;;4.07;2.63;;;;;;;2.49;100.00;102578.22;5037059;28;20253;-75
2022/01/24 01:35:57;;;;;;;3.40;2.70;;;;;;;2.48;100.00;102579.91;5040764;28;20712;-75
2022/01/24 01:38:49;;;;;;;5.20;3.23;;;;;;;2.47;100.00;102584.16;5037185;28;20280;-75
2022/01/24 01:52:34;;;;;;;8.43;4.40;;;;;;;2.47;100.00;102578.16;5038271;28;20223;-75
2022/01/24 01:55:14;;;;;;;8.40;4.17;;;;;;;2.45;100.00;102587.53;5038457;28;20213;-75
2022/01/24 01:57:40;;;;;;;6.43;3.73;;;;;;;2.43;100.00;102581.44;5038345;28;20668;-75
2022/01/24 02:00:09;;;;;;;6.40;4.17;;;;;;;2.41;100.00;102575.31;5037877;28;20211;-75
2022/01/24 02:02:35;;;;;;;7.40;4.40;;;;;;;2.41;100.00;102583.94;5035792;28;20273;-75
2022/01/24 02:05:04;;;;;;;8.43;4.60;;;;;;;2.41;100.00;102578.81;5043318;28;20196;-75
2022/01/24 02:07:30;;;;;;;9.00;4.60;;;;;;;2.40;100.00;102571.88;5037555;28;20234;-75
2022/01/24 02:09:56;;;;;;;7.43;4.47;;;;;;;2.40;100.00;102577.03;5037591;28;20205;-75
2022/01/24 02:12:26;;;;;;;10.37;4.93;;;;;;;2.40;100.00;102583.88;5043778;28;20203;-75
2022/01/24 02:14:57;;;;;;;11.97;5.33;;;;;;;2.40;100.00;102577.03;5035645;28;20456;-75
2022/01/24 02:17:31;;;;;;;8.27;4.77;;;;;;;2.41;100.00;102577.91;5042816;28;20200;-75
2022/01/24 02:20:14;;;;;;;9.40;5.27;;;;;;;2.41;100.00;102576.22;5035934;28;20206;-75
2022/01/24 02:22:49;;;;;;;8.10;4.90;;;;;;;2.41;100.00;102573.66;5039616;28;20218;-75
2022/01/24 02:25:27;;;;;;;7.90;4.50;;;;;;;2.41;100.00;102560.78;5034541;28;20211;-75
2022/01/24 02:27:59;;;;;;;10.13;4.93;;;;;;;2.40;100.00;102569.31;5034361;28;21868;-75
2022/01/24 02:30:48;;;;;;;8.57;4.77;;;;;;;2.41;100.00;102568.50;5040112;28;20223;-75
2022/01/24 02:33:14;;;;;;;12.10;5.50;;;;;;;2.42;100.00;102565.09;5041081;28;20262;-75
2022/01/24 02:35:41;;;;;;;14.83;5.73;;;;;;;2.42;100.00;102561.66;5041974;28;20195;-75
2022/01/24 02:38:17;;;;;;;15.80;6.43;;;;;;;2.41;100.00;102560.78;5043379;28;20207;-75
2022/01/24 02:40:43;;;;;;;18.50;6.57;;;;;;;2.42;100.00;102553.91;5040114;28;20741;-75
2022/01/24 02:48:23;;;;;;;28.53;7.27;;;;;;;2.43;100.00;102558.25;5033981;28;20212;-75
2022/01/24 02:48:52;;;;;;;25.80;7.07;;;;;;;2.43;100.00;102550.53;5038338;28;20767;-76
2022/01/24 02:51:36;;;;;;;47.33;7.13;;;;;;;2.42;100.00;102553.91;5037651;28;20277;-75
2022/01/24 02:54:05;;;;;;;33.17;7.77;;;;;;;2.41;100.00;102549.56;5042501;28;20606;-75
2022/01/24 02:56:31;;;;;;;22.53;6.80;;;;;;;2.43;100.00;102547.97;5035252;28;20199;-75
2022/01/24 02:58:58;;;;;;;18.50;6.53;;;;;;;2.42;100.00;102551.34;5037345;28;20223;-75
2022/01/24 03:01:24;;;;;;;20.10;6.57;;;;;;;2.41;100.00;102542.75;5038882;28;20405;-75
2022/01/24 03:03:50;;;;;;;25.20;6.57;;;;;;;2.43;100.00;102553.13;5042340;28;20204;-75
2022/01/24 03:06:17;;;;;;;17.07;5.70;;;;;;;2.40;100.00;102551.28;5034110;28;20199;-75
2022/01/24 03:08:43;;;;;;;13.60;5.50;;;;;;;2.41;100.00;102550.47;5041143;28;20458;-75
2022/01/24 03:11:11;;;;;;;10.63;5.07;;;;;;;2.40;100.00;102548.72;5043463;28;20230;-75
2022/01/24 03:13:37;;;;;;;11.77;4.57;;;;;;;2.40;100.00;102545.25;5037139;28;20207;-75
2022/01/24 03:16:06;;;;;;;10.83;4.67;;;;;;;2.40;100.00;102555.56;5038436;28;20208;-75
2022/01/24 03:18:33;;;;;;;12.80;3.83;;;;;;;2.40;100.00;102550.41;5039250;28;20230;-75
2022/01/24 03:20:59;;;;;;;17.17;4.00;;;;;;;2.39;100.00;102544.41;5039354;28;20237;-75
2022/01/24 03:23:27;;;;;;;20.00;4.07;;;;;;;2.39;100.00;102551.22;5033786;28;20222;-75
2022/01/24 03:25:53;;;;;;;23.03;4.47;;;;;;;2.38;100.00;102550.34;5037807;28;20209;-75
2022/01/24 03:28:23;;;;;;;17.80;4.33;;;;;;;2.37;100.00;102540.84;5041181;28;20200;-75
2022/01/24 03:30:50;;;;;;;23.97;4.23;;;;;;;2.36;100.00;102549.41;5038884;28;20587;-75
2022/01/24 03:33:16;;;;;;;42.90;4.50;;;;;;;2.35;100.00;102542.50;5037164;28;20290;-75
2022/01/24 03:35:43;;;;;;;12.30;4.57;;;;;;;2.34;100.00;102545.91;5035476;28;20206;-75
2022/01/24 03:38:11;;;;;;;30.03;5.03;;;;;;;2.34;100.00;102539.88;5041547;28;20195;-75
2022/01/24 03:40:37;;;;;;;21.47;5.40;;;;;;;2.34;100.00;102545.00;5039416;28;20353;-76
2022/01/24 03:43:04;;;;;;;35.10;5.37;;;;;;;2.33;100.00;102538.13;5037343;28;20226;-75
2022/01/24 03:45:42;;;;;;;25.90;4.80;;;;;;;2.34;100.00;102545.00;5042838;28;20206;-75
2022/01/24 03:48:11;;;;;;;30.50;5.20;;;;;;;2.33;100.00;102551.88;5038837;28;20221;-75
2022/01/24 03:50:39;;;;;;;50.87;5.87;;;;;;;2.35;100.00;102549.34;5036551;28;20233;-75
2022/01/24 03:53:05;;;;;;;13.07;5.03;;;;;;;2.35;100.00;102546.78;5039814;28;20199;-75
2022/01/24 03:55:33;;;;;;;29.47;5.37;;;;;;;2.35;100.00;102557.09;5040770;28;20836;-75
2022/01/24 03:57:59;;;;;;;25.60;5.40;;;;;;;2.34;100.00;102548.50;5038317;28;20274;-75
2022/01/24 04:00:26;;;;;;;22.93;5.37;;;;;;;2.34;100.00;102547.59;5043591;28;20722;-75
2022/01/24 04:02:53;;;;;;;26.37;6.07;;;;;;;2.33;100.00;102539.00;5037832;28;20592;-75
2022/01/24 04:05:20;;;;;;;20.37;6.37;;;;;;;2.32;100.00;102541.50;5033753;28;20274;-75
2022/01/24 04:07:46;;;;;;;28.87;6.47;;;;;;;2.31;100.00;102532.06;5040224;28;20465;-76
2022/01/24 04:10:17;;;;;;;19.80;5.60;;;;;;;2.28;100.00;102536.22;5039678;28;20310;-75
2022/01/24 04:12:43;;;;;;;21.77;6.40;;;;;;;2.30;100.00;102536.28;5039644;28;20195;-75
2022/01/24 04:15:12;;;;;;;29.13;6.83;;;;;;;2.30;100.00;102536.28;5040790;28;20211;-75
2022/01/24 04:17:43;;;;;;;24.43;6.17;;;;;;;2.31;100.00;102540.63;5036977;28;20280;-75
2022/01/24 04:22:58;;;;;;;19.73;6.67;;;;;;;2.34;100.00;102547.59;5037181;28;20222;-75
2022/01/24 04:25:25;;;;;;;20.47;6.93;;;;;;;2.33;100.00;102544.16;5041069;28;20196;-75
2022/01/24 04:27:53;;;;;;;20.27;6.60;;;;;;;2.34;100.00;102548.50;5037491;28;20206;-75
2022/01/24 04:30:20;;;;;;;20.40;6.70;;;;;;;2.35;100.00;102550.22;5041351;28;20219;-75
2022/01/24 04:32:46;;;;;;;25.20;7.33;;;;;;;2.35;100.00;102544.22;5043835;28;20203;-75
2022/01/24 04:35:15;;;;;;;32.87;7.33;;;;;;;2.34;100.00;102553.63;5041476;28;20200;-75
2022/01/24 04:37:41;;;;;;;29.77;6.87;;;;;;;2.36;100.00;102553.69;5041665;28;20207;-75
2022/01/24 04:40:09;;;;;;;18.80;6.30;;;;;;;2.35;100.00;102559.66;5041654;28;20208;-74
2022/01/24 04:42:44;;;;;;;16.20;6.27;;;;;;;2.33;100.00;102551.00;5046719;28;20302;-75
2022/01/24 04:50:46;;;;;;;25.97;5.97;;;;;;;2.24;100.00;102559.25;5041306;28;20223;-75
2022/01/24 04:53:29;;;;;;;42.90;7.17;;;;;;;2.23;100.00;102560.06;5045389;28;20191;-75
2022/01/24 04:55:56;;;;;;;27.87;6.50;;;;;;;2.24;100.00;102557.53;5045150;28;20272;-75
2022/01/24 04:58:22;;;;;;;19.00;6.27;;;;;;;2.23;100.00;102563.53;5038762;28;20225;-75
2022/01/24 05:00:49;;;;;;;20.43;6.90;;;;;;;2.20;100.00;102557.34;5042595;28;20575;-75
2022/01/24 05:03:15;;;;;;;17.63;5.90;;;;;;;2.18;100.00;102559.00;5037884;28;20416;-75
2022/01/24 05:05:43;;;;;;;18.13;6.00;;;;;;;2.14;100.00;102559.69;5043714;28;20206;-75
2022/01/24 05:08:10;;;;;;;17.30;6.23;;;;;;;2.11;100.00;102559.56;5039758;28;20259;-75
2022/01/24 05:10:41;;;;;;;28.37;6.93;;;;;;;2.08;100.00;102566.34;5040396;28;20219;-75
2022/01/24 05:21:42;;;;;;;25.43;7.07;;;;;;;2.07;100.00;102574.88;5044503;28;20254;-75
2022/01/24 05:24:08;;;;;;;26.43;7.37;;;;;;;2.05;100.00;102573.06;5041673;28;20215;-75
2022/01/24 05:26:34;;;;;;;45.87;7.43;;;;;;;2.06;100.00;102578.28;5042911;28;20309;-75
2022/01/24 05:29:01;;;;;;;68.43;7.43;;;;;;;2.06;100.00;102570.56;5042002;28;20226;-75
2022/01/24 05:31:27;;;;;;;46.67;7.33;;;;;;;2.06;100.00;102580.84;5041677;28;20211;-75
2022/01/24 05:33:53;;;;;;;29.17;6.80;;;;;;;2.08;100.00;102578.34;5037086;28;20621;-75
2022/01/24 05:36:21;;;;;;;83.57;6.57;;;;;;;2.07;100.00;102582.59;5042678;28;20571;-75
2022/01/24 05:38:47;;;;;;;58.70;7.80;;;;;;;2.08;100.00;102581.78;5040562;28;20199;-75
2022/01/24 05:41:14;;;;;;;56.13;6.10;;;;;;;2.08;100.00;102586.94;5041675;28;20235;-75
2022/01/24 05:43:40;;;;;;;24.30;6.47;;;;;;;2.07;100.00;102587.75;5045844;28;20699;-75
2022/01/24 05:46:07;;;;;;;112.63;7.77;;;;;;;2.07;100.00;102586.88;5042333;28;20206;-75
2022/01/24 05:48:33;;;;;;;103.93;7.73;;;;;;;2.06;100.00;102593.72;5037729;28;20211;-75
2022/01/24 05:50:59;;;;;;;40.83;7.03;;;;;;;2.07;100.00;102592.03;5040594;28;20695;-75
2022/01/24 05:53:27;;;;;;;53.73;6.73;;;;;;;2.07;100.00;102598.03;5042184;28;20196;-75
2022/01/24 05:55:55;;;;;;;48.80;6.93;;;;;;;2.06;100.00;102595.44;5044359;28;20211;-75
2022/01/24 05:58:22;;;;;;;54.00;7.07;;;;;;;2.06;100.00;102598.00;5042420;28;20251;-75
2022/01/24 06:00:48;;;;;;;29.00;6.40;;;;;;;2.06;100.00;102591.16;5038416;28;20246;-75
2022/01/24 06:03:14;;;;;;;43.20;7.40;;;;;;;2.06;100.00;102593.72;5042092;28;20711;-75
2022/01/24 06:05:41;;;;;;;28.90;6.57;;;;;;;2.07;100.00;102595.47;5042963;28;20578;-75
2022/01/24 06:08:07;;;;;;;41.67;6.20;;;;;;;2.07;100.00;102589.44;5038209;28;20203;-75
2022/01/24 06:10:36;;;;;;;52.13;6.13;;;;;;;2.07;100.00;102587.75;5038320;28;20738;-75
2022/01/24 06:13:03;;;;;;;29.30;6.07;;;;;;;2.07;100.00;102586.88;5038329;28;20203;-75
2022/01/24 06:15:30;;;;;;;26.20;5.70;;;;;;;2.07;100.00;102587.75;5040468;28;20818;-75
2022/01/24 06:17:56;;;;;;;29.07;5.90;;;;;;;2.07;100.00;102592.88;5042448;28;20215;-75
2022/01/24 06:20:24;;;;;;;16.13;5.63;;;;;;;2.07;100.00;102587.75;5044816;28;20226;-75
2022/01/24 06:22:50;;;;;;;27.50;5.47;;;;;;;2.06;100.00;102582.56;5037709;28;20553;-75
2022/01/24 06:25:21;;;;;;;22.27;6.10;;;;;;;2.06;100.00;102583.44;5042398;28;20198;-75
2022/01/24 06:27:49;;;;;;;21.93;5.60;;;;;;;2.07;100.00;102580.03;5041513;28;20213;-75
2022/01/24 06:30:16;;;;;;;15.77;5.60;;;;;;;2.08;100.00;102597.22;5044433;28;20711;-75
2022/01/24 06:32:42;;;;;;;22.67;6.37;;;;;;;2.07;100.00;102595.47;5041849;28;20214;-75
2022/01/24 06:35:11;;;;;;;27.47;6.70;;;;;;;2.10;100.00;102591.28;5045033;28;20652;-75
2022/01/24 06:37:39;;;;;;;17.50;6.17;;;;;;;2.10;100.00;102596.44;5040473;28;20199;-75
2022/01/24 06:40:06;;;;;;;21.87;5.90;;;;;;;2.11;100.00;102593.91;5044088;28;20196;-75
2022/01/24 06:42:33;;;;;;;15.43;5.43;;;;;;;2.13;100.00;102591.38;5041360;28;20658;-75
2022/01/24 06:45:00;;;;;;;14.00;5.43;;;;;;;2.13;100.00;102586.22;5043662;28;20184;-75
2022/01/24 06:47:27;;;;;;;19.77;4.90;;;;;;;2.12;100.00;102594.78;5044583;28;20210;-75
2022/01/24 06:49:53;;;;;;;18.00;5.97;;;;;;;2.15;100.00;102592.34;5041694;28;20237;-75
2022/01/24 06:52:20;;;;;;;19.33;4.87;;;;;;;2.15;100.00;102603.50;5041264;28;20387;-75
2022/01/24 06:54:48;;;;;;;13.00;4.70;;;;;;;2.15;100.00;102606.09;5037216;28;20211;-75
2022/01/24 06:57:15;;;;;;;15.97;4.70;;;;;;;2.16;100.00;102599.22;5039794;28;20597;-75
2022/01/24 06:59:43;;;;;;;13.03;5.13;;;;;;;2.16;100.00;102610.41;5039361;28;20206;-75
2022/01/24 07:02:12;;;;;;;12.60;4.90;;;;;;;2.17;100.00;102606.16;5044625;28;20230;-75
2022/01/24 07:04:41;;;;;;;12.47;5.00;;;;;;;2.16;100.00;102609.53;5039069;28;20227;-75
2022/01/24 07:07:09;;;;;;;19.30;6.57;;;;;;;2.15;100.00;102606.09;5042574;28;20997;-75
2022/01/24 07:09:35;;;;;;;17.77;6.30;;;;;;;2.16;100.00;102610.41;5036137;28;20191;-76
2022/01/24 07:12:02;;;;;;;19.93;8.23;;;;;;;2.17;100.00;102622.47;5044444;28;20226;-75
2022/01/24 07:14:28;;;;;;;19.77;8.90;;;;;;;2.18;100.00;102616.50;5050949;28;20636;-75
2022/01/24 07:17:12;;;;;;;27.43;11.40;;;;;;;2.19;100.00;102622.53;5044736;28;20574;-75
2022/01/24 07:19:40;;;;;;;57.30;26.60;;;;;;;2.21;100.00;102629.47;5042019;28;20203;-75
2022/01/24 07:22:07;;;;;;;26.17;11.10;;;;;;;2.22;100.00;102633.81;5040685;28;20227;-75
2022/01/24 07:24:35;;;;;;;31.40;13.97;;;;;;;2.23;100.00;102626.97;5043920;28;20222;-75
2022/01/24 07:27:02;;;;;;;47.70;15.37;;;;;;;2.26;100.00;102638.28;5038811;28;20222;-75
2022/01/24 07:29:29;;;;;;;54.07;17.47;;;;;;;2.28;100.00;102644.34;5037535;28;20223;-75
2022/01/24 07:31:55;;;;;;;56.03;17.23;;;;;;;2.33;100.00;102641.09;5044014;28;20223;-75
2022/01/24 07:34:22;;;;;;;55.07;16.17;;;;;;;2.34;100.00;102641.16;5040075;28;20849;-75
2022/01/24 07:36:50;;;;;;;38.97;13.37;;;;;;;2.37;100.00;102638.69;5041548;28;20495;-76
2022/01/24 07:39:17;;;;;;;33.60;12.27;;;;;;;2.40;100.00;102650.81;5040673;28;20199;-75
2022/01/24 07:41:45;;;;;;;32.97;10.60;;;;;;;2.41;100.00;102648.31;5037850;28;20600;-75
2022/01/24 07:44:18;;;;;;;34.10;11.03;;;;;;;2.44;100.00;102648.41;5058135;28;20591;-75
2022/01/24 07:46:45;;;;;;;26.60;9.93;;;;;;;2.46;100.00;102656.19;5038802;28;20199;-75
2022/01/24 07:49:12;;;;;;;22.87;9.67;;;;;;;2.48;100.00;102649.44;5035036;28;20578;-75
2022/01/24 07:51:39;;;;;;;24.30;10.80;;;;;;;2.50;100.00;102642.66;5037122;28;20572;-76
2022/01/24 07:54:08;;;;;;;27.77;10.70;;;;;;;2.54;100.00;102653.94;5041625;28;20209;-75
2022/01/24 07:56:35;;;;;;;21.53;9.50;;;;;;;2.56;100.00;102648.03;5041904;28;20610;-75
2022/01/24 07:59:01;;;;;;;26.07;11.00;;;;;;;2.58;100.00;102653.25;5041101;28;20217;-75
2022/01/24 08:01:27;;;;;;;21.73;9.67;;;;;;;2.60;100.00;102654.19;5040537;28;20581;-75
2022/01/24 08:03:54;;;;;;;21.90;9.73;;;;;;;2.63;100.00;102654.31;5041284;28;21128;-75
2022/01/24 08:06:21;;;;;;;17.67;9.10;;;;;;;2.66;100.00;102657.00;5042410;28;20628;-75
2022/01/24 08:08:47;;;;;;;16.73;9.37;;;;;;;2.68;100.00;102657.94;5039091;28;20313;-75
2022/01/24 08:11:17;;;;;;;17.73;9.27;;;;;;;2.72;100.00;102656.38;5042702;28;20853;-75
2022/01/24 08:13:44;;;;;;;14.43;8.00;;;;;;;2.76;100.00;102653.06;5039111;28;20586;-75
2022/01/24 08:16:11;;;;;;;11.53;5.90;;;;;;;2.80;100.00;102653.25;5041397;28;20679;-75
2022/01/24 08:18:37;;;;;;;11.83;5.53;;;;;;;2.84;100.00;102660.28;5046816;28;20682;-75
2022/01/24 08:21:03;;;;;;;10.67;5.23;;;;;;;2.89;100.00;102662.16;5045924;28;20218;-75
2022/01/24 08:23:30;;;;;;;11.97;5.87;;;;;;;2.93;100.00;102661.47;5040827;28;20810;-75
2022/01/24 08:25:56;;;;;;;12.10;6.70;;;;;;;2.96;100.00;102659.00;5042541;28;20219;-75
2022/01/24 08:28:24;;;;;;;18.73;10.60;;;;;;;2.98;100.00;102665.09;5049187;28;20709;-75
2022/01/24 08:30:52;;;;;;;18.60;9.20;;;;;;;3.04;100.00;102665.31;5041861;28;20219;-75
2022/01/24 08:33:18;;;;;;;14.03;6.77;;;;;;;3.08;100.00;102656.88;5048901;28;20276;-75
2022/01/24 08:35:45;;;;;;;13.27;6.73;;;;;;;3.13;100.00;102659.63;5038754;28;20218;-75
2022/01/24 08:38:11;;;;;;;13.33;6.27;;;;;;;3.15;100.00;102656.28;5045897;28;20210;-75
2022/01/24 08:40:40;;;;;;;16.53;7.63;;;;;;;3.19;100.00;102658.16;5042377;28;20223;-75
2022/01/24 08:43:07;;;;;;;12.50;6.03;;;;;;;3.21;100.00;102664.22;5043339;28;20199;-75
2022/01/24 08:45:50;;;;;;;13.43;6.33;;;;;;;3.28;100.00;102665.34;5046336;28;20303;-75
2022/01/24 08:48:20;;;;;;;14.40;6.90;;;;;;;3.32;100.00;102666.34;5050639;28;20297;-75
2022/01/24 08:50:49;;;;;;;14.73;6.17;;;;;;;3.36;100.00;102655.28;5044580;28;20230;-75
2022/01/24 08:53:16;;;;;;;14.20;6.23;;;;;;;3.41;100.00;102661.50;5040772;28;20204;-75
2022/01/24 08:55:43;;;;;;;18.17;7.60;;;;;;;3.43;100.00;102654.72;5045985;28;20411;-75
2022/01/24 08:58:13;;;;;;;19.93;8.53;;;;;;;3.44;100.00;102648.72;5044874;28;20212;-75
2022/01/24 09:00:42;;;;;;;17.87;7.90;;;;;;;3.47;100.00;102654.00;5046795;28;20226;-75
2022/01/24 09:03:08;;;;;;;17.13;8.50;;;;;;;3.49;100.00;102654.06;5049741;28;20212;-75
2022/01/24 09:05:35;;;;;;;21.43;8.73;;;;;;;3.51;100.00;102650.69;5045321;28;20242;-75
2022/01/24 09:08:03;;;;;;;18.63;7.90;;;;;;;3.54;100.00;102649.94;5046166;28;20209;-75
2022/01/24 09:10:30;;;;;;;20.73;9.30;;;;;;;3.58;100.00;102650.06;5045510;28;20230;-75
2022/01/24 09:12:57;;;;;;;27.37;14.33;;;;;;;3.62;100.00;102652.78;5045698;28;20705;-75
2022/01/24 09:15:23;;;;;;;17.67;8.63;;;;;;;3.66;100.00;102652.94;5046762;28;20206;-75
2022/01/24 09:17:51;;;;;;;17.97;8.33;;;;;;;3.71;100.00;102656.56;5040041;28;20207;-75
2022/01/24 09:20:18;;;;;;;13.60;6.90;;;;;;;3.72;100.00;102650.56;5047583;28;20222;-75
2022/01/24 09:22:46;;;;;;;12.07;6.03;;;;;;;3.73;100.00;102648.84;5043065;28;20199;-75
2022/01/24 09:25:15;;;;;;;13.00;6.50;;;;;;;3.75;100.00;102649.81;5043170;28;20222;-75
2022/01/24 09:27:42;;;;;;;13.63;7.13;;;;;;;3.79;100.00;102651.66;5042151;28;20651;-76
2022/01/24 09:30:11;;;;;;;19.37;8.23;;;;;;;3.85;100.00;102651.84;5046878;28;20544;-76
2022/01/24 09:32:38;;;;;;;15.13;7.30;;;;;;;3.92;100.00;102647.78;5044718;28;20197;-76
2022/01/24 09:35:08;;;;;;;13.73;6.67;;;;;;;3.90;100.00;102649.44;5043475;28;20196;-75
2022/01/24 09:37:35;;;;;;;13.27;6.53;;;;;;;3.90;100.00;102647.72;5048486;28;20205;-76
2022/01/24 09:40:01;;;;;;;13.53;6.27;;;;;;;3.93;100.00;102650.41;5043376;28;20219;-75
2022/01/24 09:42:28;;;;;;;14.93;7.17;;;;;;;3.92;100.00;102647.78;5043985;28;20208;-76
2022/01/24 09:44:56;;;;;;;17.90;8.13;;;;;;;3.94;100.00;102646.13;5042400;28;20221;-75
2022/01/24 09:47:22;;;;;;;13.67;6.53;;;;;;;3.98;100.00;102646.28;5048533;28;20553;-75
2022/01/24 09:49:50;;;;;;;11.17;5.60;;;;;;;3.99;100.00;102642.00;5040513;28;20977;-76
2022/01/24 09:52:17;;;;;;;9.17;5.37;;;;;;;4.05;100.00;102641.34;5041088;28;20335;-75
2022/01/24 09:54:44;;;;;;;10.63;5.40;;;;;;;4.08;100.00;102641.41;5046373;28;20213;-76
2022/01/24 09:57:10;;;;;;;8.10;4.17;;;;;;;4.11;100.00;102631.19;5044855;28;20223;-75
2022/01/24 09:59:37;;;;;;;8.20;4.27;;;;;;;4.13;100.00;102633.03;5046866;28;20201;-75
2022/01/24 10:02:04;;;;;;;9.10;4.90;;;;;;;4.21;100.00;102635.84;5040684;28;20224;-76
2022/01/24 10:04:31;;;;;;;10.37;5.47;;;;;;;4.27;100.00;102635.16;5045779;28;20206;-75
2022/01/24 10:06:59;;;;;;;8.57;4.97;;;;;;;4.28;100.00;102632.63;5038769;28;20210;-75
2022/01/24 10:09:33;;;;;;;10.23;5.00;;;;;;;4.42;100.00;102632.19;5043910;28;20698;-75
2022/01/24 10:12:08;;;;;;;8.57;5.17;;;;;;;4.49;100.00;102629.84;5041133;28;20233;-75
2022/01/24 10:17:20;;;;;;;10.47;5.40;;;;;;;4.74;100.00;102634.03;5042731;28;20606;-75
2022/01/24 10:19:47;;;;;;;12.00;7.07;;;;;;;4.88;100.00;102636.16;5045684;28;20196;-76
2022/01/24 10:22:13;;;;;;;5.77;4.00;;;;;;;4.88;100.00;102631.00;5046404;28;20220;-75
2022/01/24 10:24:43;;;;;;;4.60;2.97;;;;;;;4.91;100.00;102628.50;5042108;28;20223;-75
2022/01/24 10:27:13;;;;;;;5.43;4.10;;;;;;;4.91;100.00;102628.50;5047942;28;20202;-75
2022/01/24 10:29:46;;;;;;;7.87;5.77;;;;;;;4.92;100.00;102630.25;5045830;28;20211;-75
2022/01/24 10:32:32;;;;;;;12.17;8.03;;;;;;;4.91;100.00;102634.56;5043246;28;20401;-75
2022/01/24 10:35:24;;;;;;;7.17;5.60;;;;;;;4.82;100.00;102636.88;5044157;28;20199;-75
2022/01/24 10:37:54;;;;;;;5.77;3.33;;;;;;;4.83;100.00;102640.31;5044484;28;20550;-76
2022/01/24 10:40:45;;;;;;;8.50;4.67;;;;;;;4.84;100.00;102636.91;5042098;28;20675;-75
2022/01/24 10:43:20;;;;;;;10.70;5.27;;;;;;;4.82;100.00;102633.38;5041188;28;20213;-75
2022/01/24 10:45:47;;;;;;;11.20;4.90;;;;;;;4.85;100.00;102633.50;5044541;28;20281;-75
2022/01/24 10:48:20;;;;;;;16.07;6.30;;;;;;;4.95;100.00;102621.72;5037929;28;20686;-75
2022/01/24 10:50:48;;;;;;;12.63;6.57;;;;;;;4.97;100.00;102625.22;5042363;28;20304;-75
2022/01/24 10:53:16;;;;;;;11.77;5.30;;;;;;;4.97;100.00;102627.81;5043529;28;20198;-75
2022/01/24 10:55:45;;;;;;;8.37;5.23;;;;;;;4.96;100.00;102623.44;5043743;28;20290;-75
2022/01/24 10:58:16;;;;;;;13.13;6.80;;;;;;;5.00;100.00;102617.56;5043317;28;20200;-75
2022/01/24 11:00:44;;;;;;;10.67;5.83;;;;;;;4.93;100.00;102614.78;5046134;28;20229;-75
2022/01/24 11:03:17;;;;;;;9.07;5.57;;;;;;;4.87;100.00;102618.91;5045448;28;20199;-75
2022/01/24 11:05:44;;;;;;;10.07;5.13;;;;;;;4.91;100.00;102615.59;5044656;28;20302;-75
2022/01/24 11:08:13;;;;;;;9.17;5.77;;;;;;;4.86;100.00;102610.28;5046874;28;20234;-75
2022/01/24 11:10:41;;;;;;;9.93;5.90;;;;;;;4.98;100.00;102609.75;5041612;28;20223;-76
2022/01/24 11:13:08;;;;;;;9.70;6.20;;;;;;;5.06;100.00;102609.97;5044801;28;20208;-75
2022/01/24 11:15:38;;;;;;;9.80;5.90;;;;;;;5.13;100.00;102605.00;5043767;28;20207;-75
2022/01/24 11:18:05;;;;;;;14.47;8.00;;;;;;;5.23;100.00;102592.34;5042763;28;20191;-76
2022/01/24 11:20:35;;;;;;;15.63;9.10;;;;;;;5.32;100.00;102598.63;5043488;28;20223;-75
2022/01/24 11:23:05;;;;;;;12.80;7.63;;;;;;;5.32;100.00;102595.16;5039461;28;20298;-75
2022/01/24 11:25:36;;;;;;;11.47;6.70;;;;;;;5.36;100.00;102596.13;5037937;28;20802;-75
2022/01/24 11:28:03;;;;;;;9.13;5.83;;;;;;;5.40;100.00;102601.44;5043476;28;20206;-75
2022/01/24 11:30:35;;;;;;;6.47;4.73;;;;;;;5.53;100.00;102594.00;5042983;28;20223;-76
2022/01/24 11:33:05;;;;;;;8.60;4.70;;;;;;;5.63;100.00;102589.09;5044193;28;20198;-76
2022/01/24 11:35:35;;;;;;;8.70;5.37;;;;;;;5.68;100.00;102591.78;5041692;28;20196;-75
2022/01/24 11:38:03;;;;;;;6.77;3.93;;;;;;;5.75;100.00;102593.72;5042754;28;20549;-75
2022/01/24 11:40:48;;;;;;;4.70;3.67;;;;;;;5.74;100.00;102589.38;5043378;28;20722;-75
2022/01/24 11:43:25;;;;;;;5.20;3.57;;;;;;;5.77;100.00;102598.91;5037082;28;20203;-75
2022/01/24 11:46:01;;;;;;;5.20;3.67;;;;;;;5.66;100.00;102596.06;5045465;28;20793;-75
2022/01/24 11:48:27;;;;;;;3.47;2.70;;;;;;;5.61;100.00;102595.06;5037411;28;20207;-75
2022/01/24 11:51:00;;;;;;;3.10;2.17;;;;;;;5.61;100.00;102590.78;5039367;28;20588;-75
2022/01/24 11:53:29;;;;;;;2.63;2.13;;;;;;;5.59;100.00;102599.31;5043562;28;20234;-76
2022/01/24 11:56:16;;;;;;;2.70;2.20;;;;;;;5.62;100.00;102587.34;5043332;28;20195;-75
2022/01/24 11:58:42;;;;;;;3.87;3.10;;;;;;;5.60;100.00;102582.97;5037533;28;20204;-75
2022/01/24 12:01:14;;;;;;;3.97;3.30;;;;;;;5.64;100.00;102583.06;5040080;28;20231;-76
2022/01/24 12:03:49;;;;;;;2.40;2.10;;;;;;;5.69;100.00;102578.03;5042629;28;20210;-75
2022/01/24 12:06:19;;;;;;;3.50;2.20;;;;;;;5.74;100.00;102571.25;5043582;28;20594;-75
2022/01/24 12:08:47;;;;;;;3.20;2.50;;;;;;;5.72;100.00;102564.25;5043493;28;20241;-75
2022/01/24 12:11:19;;;;;;;3.73;2.97;;;;;;;5.69;100.00;102565.06;5041905;28;20246;-75
2022/01/24 12:13:47;;;;;;;2.73;2.33;;;;;;;5.62;100.00;102563.19;5042772;28;20413;-75
2022/01/24 12:16:15;;;;;;;4.37;3.57;;;;;;;5.64;100.00;102552.00;5040761;28;20196;-76
2022/01/24 12:18:57;;;;;;;3.90;3.03;;;;;;;5.65;100.00;102552.91;5043605;28;20461;-75
2022/01/24 12:21:25;;;;;;;3.30;2.40;;;;;;;5.64;100.00;102564.94;5056233;28;20612;-75